• Join FlightAware (Why Join?)
  • Login
  • US Flag 
09:52PM EDT


 

Airport Tracker/Info


-or-


 

Live Flight TrackerFlight Track Log ✈ KAP927 ✈ 01-Jun-2013 ✈ KALB - KBOS

Flight Track Log - Related Links

Times and Time Zones

All times are in EDT time to prevent confusion due to time zone crossing. See the KAP927 flight status page for this flight to view local times or setup timezone preferences in your user account.

Time Position Orientation Groundspeed Altitude Reporting Facility
EDT Latitude Longitude Course Direction KTS MPH feet Rate Location/Type
08:36AM 42.7433 -73.7150 101° East 129 148 1,600  Level Boston Center
08:37AM 42.7356 -73.6611 101° East 138 159 2,100 420 Climbing Boston Center
08:38AM 42.7278 -73.6075 101° East 137 158 2,500 420 Climbing Boston Center
08:39AM 42.7222 -73.5564 98° East 136 157 3,100 480 Climbing Boston Center
08:40AM 42.7164 -73.5083 99° East 138 159 3,500 420 Climbing Boston Center
08:41AM 42.7064 -73.4572 105° East 144 166 4,000 480 Climbing Boston Center
08:42AM 42.7028 -73.4036 95° East 143 165 4,500 480 Climbing Boston Center
08:43AM 42.6947 -73.3497 101° East 142 163 5,000 420 Climbing Boston Center
08:44AM 42.6889 -73.2989 99° East 139 160 5,400 360 Climbing Boston Center
08:45AM 42.6831 -73.2506 99° East 148 170 5,800 360 Climbing Boston Center
08:46AM 42.6750 -73.1914 100° East 148 170 6,200 360 Climbing Boston Center
08:47AM 42.6672 -73.1403 102° East 148 170 6,600 360 Climbing Boston Center
08:48AM 42.6592 -73.0753 100° East 148 170 7,000 300 Climbing Boston Center
08:49AM 42.6511 -73.0217 102° East 153 176 7,300 360 Climbing Boston Center
08:50AM 42.6472 -72.9650 95° East 153 176 7,800 420 Climbing Boston Center
08:51AM 42.6392 -72.9031 100° East 153 176 8,200 420 Climbing Boston Center
08:52AM 42.6289 -72.8464 104° East 153 176 8,700 420 Climbing Boston Center
08:53AM 42.6208 -72.7872 100° East 153 176 9,100 360 Climbing Boston Center
08:54AM 42.6147 -72.7278 98° East 153 176 9,500 240 Climbing Boston Center
08:55AM 42.6022 -72.6631 105° East 169 194 9,600  Climbing Boston Center
08:56AM 42.5942 -72.5925 99° East 184 212 9,600  Level Boston Center
08:57AM 42.5858 -72.5247 99° East 184 212 9,600  Level Boston Center
08:58AM 42.5775 -72.4569 99° East 184 212 9,600  Level Boston Center
08:59AM 42.5650 -72.3894 104° East 184 212 9,600  Level Boston Center
09:00AM 42.5567 -72.3217 99° East 184 212 9,600  Level Boston Center
09:01AM 42.5461 -72.2514 102° East 184 212 9,600  Level Boston Center
09:02AM 42.5356 -72.1836 102° East 179 206 9,600  Level Boston Center
09:03AM 42.5250 -72.1161 102° East 179 206 9,600 -240 Level Boston Center
09:04AM 42.5164 -72.0458 99° East 179 206 9,200 -480 Descending Boston Center
09:05AM 42.5058 -71.9783 102° East 192 221 8,700 -600 Descending Boston Center
09:06AM 42.4950 -71.8911 100° East 203 234 8,100 -600 Descending Boston Center
09:07AM 42.4842 -71.8236 102° East 203 234 7,600 -600 Descending Boston Center
09:08AM 42.4900 -71.7389 85° East 198 228 7,000 -600 Descending Boston Center
09:09AM 42.4978 -71.6686 81° East 198 228 6,500 -600 Descending Boston Center
09:10AM 42.5078 -71.5867 81° East 198 228 5,800 -720 Descending Boston Center
09:11AM 42.5167 -71.5667 59° Northeast 205 236 5,600 -240 Descending KA90
09:12AM 42.5167 -71.4833 90° East 188 216 5,500 -60 Descending KA90
09:13AM 42.5333 -71.4167 71° East 179 206 5,500 -300 Level KA90
09:14AM 42.5333 -71.3500 90° East 174 200 5,000 -540 Descending KA90
09:15AM 42.5500 -71.2833 71° East 196 226 4,500 -300 Descending KA90
09:16AM 42.5500 -71.2167 90° East 190 219 4,500  Level KA90
09:17AM 42.5500 -71.1500 90° East 181 208 4,500 -180 Level KA90
09:18AM 42.5333 -71.0833 109° East 171 197 4,200 -540 Descending KA90
09:19AM 42.5167 -71.0167 109° East 196 226 3,500 -840 Descending KA90
09:20AM 42.4833 -70.9667 132° Southeast 201 231 2,600 -900 Descending KA90
09:21AM 42.4333 -70.9667 180° South 177 204 1,700 -900 Descending KA90
09:22AM 42.4000 -70.9833 200° South 122 140 900 -840 Descending KA90
09:24AM 42.3630 -71.0064 270° West  Level Estimated
09:31AM 42.3630 -71.0064 270° West  Level Estimated
09:32AM 42.3630 -71.0064 270° West  Level Estimated